createdAt,value
2022-12-06T00:01:32.475Z,9.30
2022-12-06T00:06:40.814Z,7.50
2022-12-06T00:11:43.478Z,7.28
2022-12-06T00:16:44.797Z,5.88
2022-12-06T00:21:47.244Z,9.00
2022-12-06T00:26:51.052Z,6.97
2022-12-06T00:31:52.312Z,8.00
2022-12-06T00:36:53.257Z,8.05
2022-12-06T00:41:57.358Z,8.13
2022-12-06T00:46:58.244Z,9.50
2022-12-06T00:51:59.099Z,9.90
2022-12-06T00:57:01.404Z,6.80
2022-12-06T01:02:02.309Z,8.10
2022-12-06T01:07:03.190Z,5.95
2022-12-06T01:12:05.511Z,9.20
2022-12-06T01:17:06.361Z,6.78
2022-12-06T01:22:07.182Z,7.10
2022-12-06T01:27:09.311Z,9.82
2022-12-06T01:32:10.167Z,8.45
2022-12-06T01:37:10.984Z,9.23
2022-12-06T01:42:14.312Z,8.05
2022-12-06T01:47:19.723Z,9.77
2022-12-06T01:52:24.767Z,9.95
2022-12-06T01:57:27.099Z,10.32
2022-12-06T02:02:28.135Z,6.88
2022-12-06T02:07:30.588Z,10.55
2022-12-06T02:12:32.770Z,8.10
2022-12-06T02:17:42.926Z,10.05
2022-12-06T02:23:14.358Z,11.05
2022-12-06T02:28:32.782Z,10.65
2022-12-06T02:33:42.073Z,12.27
2022-12-06T02:38:48.161Z,15.07
2022-12-06T02:43:54.852Z,11.70
2022-12-06T02:48:59.537Z,14.18
2022-12-06T02:54:03.628Z,11.13
2022-12-06T02:59:05.669Z,14.88
2022-12-06T03:04:31.614Z,11.15
2022-12-06T03:09:49.468Z,19.08
2022-12-06T03:14:57.005Z,12.35
2022-12-06T03:20:05.999Z,15.73
2022-12-06T03:25:09.125Z,12.88
2022-12-06T03:30:13.808Z,13.02
2022-12-06T03:35:20.671Z,12.55
2022-12-06T03:40:25.630Z,13.35
2022-12-06T03:45:35.217Z,12.70
2022-12-06T03:50:42.268Z,12.55
2022-12-06T03:55:43.464Z,15.25
2022-12-06T04:00:44.234Z,15.57
2022-12-06T04:05:46.405Z,13.68
2022-12-06T04:10:47.181Z,13.70
2022-12-06T04:15:48.190Z,15.65
2022-12-06T04:21:15.345Z,10.60
2022-12-06T04:26:19.060Z,11.38
2022-12-06T04:31:37.408Z,12.02
2022-12-06T04:36:57.792Z,11.88
2022-12-06T04:42:16.299Z,13.32
2022-12-06T04:47:17.254Z,15.25
2022-12-06T04:52:19.536Z,12.07
2022-12-06T04:57:20.331Z,11.55
2022-12-06T05:02:21.174Z,11.95
2022-12-06T05:07:23.303Z,10.73
2022-12-06T05:12:24.082Z,10.77
2022-12-06T05:17:24.918Z,15.35
2022-12-06T05:22:27.076Z,10.95
2022-12-06T05:27:31.607Z,9.23
2022-12-06T05:32:35.727Z,14.65
2022-12-06T05:37:37.920Z,11.38
2022-12-06T05:42:40.945Z,11.63
2022-12-06T05:47:41.770Z,10.93
2022-12-06T05:52:43.944Z,10.00
2022-12-06T05:57:47.413Z,11.45
2022-12-06T06:02:50.081Z,12.88
2022-12-06T06:07:52.415Z,12.43
2022-12-06T06:12:53.915Z,11.18
2022-12-06T06:17:55.168Z,12.73
2022-12-06T06:22:57.420Z,10.65
2022-12-06T06:27:58.268Z,15.15
2022-12-06T06:32:59.043Z,13.63
2022-12-06T06:38:01.774Z,16.05
2022-12-06T06:43:18.286Z,13.95
2022-12-06T06:48:19.347Z,13.93
2022-12-06T06:53:21.751Z,15.55
2022-12-06T06:58:22.693Z,13.15
2022-12-06T07:03:24.848Z,15.48
2022-12-06T07:08:27.843Z,14.85
2022-12-06T07:13:29.883Z,15.13
2022-12-06T07:18:31.014Z,12.48
2022-12-06T07:23:34.416Z,17.67
2022-12-06T07:28:36.765Z,14.10
2022-12-06T07:33:37.890Z,14.77
2022-12-06T07:38:40.267Z,16.25
2022-12-06T07:43:58.596Z,18.80
2022-12-06T07:48:59.382Z,18.27
2022-12-06T07:54:02.082Z,14.20
2022-12-06T07:59:03.343Z,15.65
2022-12-06T08:04:06.268Z,14.93
2022-12-06T08:09:09.411Z,15.50
2022-12-06T08:14:12.213Z,14.02
2022-12-06T08:19:13.070Z,14.13
2022-12-06T08:24:15.534Z,16.58
2022-12-06T08:29:16.875Z,19.70
2022-12-06T08:34:18.227Z,14.57
2022-12-06T08:39:20.477Z,14.32
2022-12-06T08:44:21.549Z,16.52
2022-12-06T08:49:26.283Z,15.20
2022-12-06T08:54:29.135Z,14.32
2022-12-06T08:59:30.031Z,15.10
2022-12-06T09:04:31.073Z,15.65
2022-12-06T09:09:33.316Z,15.68
2022-12-06T09:14:34.190Z,14.52
2022-12-06T09:19:35.304Z,14.70
2022-12-06T09:24:37.575Z,16.80
2022-12-06T09:29:40.791Z,13.25
2022-12-06T09:34:42.205Z,11.65
2022-12-06T09:39:53.648Z,17.20
2022-12-06T09:45:20.258Z,16.25
2022-12-06T09:50:27.595Z,13.70
2022-12-06T09:55:49.873Z,13.25
2022-12-06T10:00:59.384Z,18.70
2022-12-06T10:06:02.905Z,14.45
2022-12-06T10:11:16.158Z,14.38
2022-12-06T10:16:28.107Z,14.05
2022-12-06T10:21:41.684Z,13.25
2022-12-06T10:26:50.047Z,16.55
2022-12-06T10:31:58.263Z,17.92
2022-12-06T10:37:08.526Z,14.88
2022-12-06T10:42:16.666Z,14.32
2022-12-06T10:47:22.491Z,11.73
2022-12-06T10:52:35.987Z,13.65
2022-12-06T10:57:45.825Z,14.48
2022-12-06T11:02:56.171Z,12.50
2022-12-06T11:08:04.359Z,15.73
2022-12-06T11:13:21.335Z,15.88
2022-12-06T11:18:23.481Z,16.15
2022-12-06T11:23:33.724Z,14.35
2022-12-06T11:28:39.100Z,12.40
2022-12-06T11:33:40.087Z,13.00
2022-12-06T11:38:44.051Z,13.18
2022-12-06T11:43:46.606Z,21.48
2022-12-06T11:48:48.066Z,11.13
2022-12-06T11:54:01.672Z,15.32
2022-12-06T11:59:22.544Z,19.58
2022-12-06T12:04:43.044Z,15.45
2022-12-06T12:09:55.092Z,13.55
2022-12-06T12:14:59.364Z,14.57
2022-12-06T12:20:04.044Z,15.45
2022-12-06T12:25:22.437Z,18.02
2022-12-06T12:30:28.335Z,17.40
2022-12-06T12:35:29.365Z,13.77
2022-12-06T12:40:35.190Z,21.33
2022-12-06T12:45:38.071Z,15.60
2022-12-06T12:50:38.964Z,13.25
2022-12-06T12:55:41.864Z,17.88
2022-12-06T13:00:49.565Z,13.50
2022-12-06T13:05:51.764Z,13.98
2022-12-06T13:10:59.235Z,13.68
2022-12-06T13:16:10.632Z,12.57
2022-12-06T13:21:22.691Z,13.68
2022-12-06T13:26:27.434Z,14.05
2022-12-06T13:31:36.430Z,14.98
2022-12-06T13:36:37.412Z,15.05
2022-12-06T13:42:13.662Z,15.35
2022-12-06T13:47:50.376Z,22.63
2022-12-06T13:53:05.408Z,17.25
2022-12-06T13:58:40.942Z,19.52
2022-12-06T14:03:43.444Z,16.80
2022-12-06T14:08:46.375Z,17.52
2022-12-06T14:13:48.895Z,15.13
2022-12-06T14:18:52.146Z,15.90
2022-12-06T14:23:53.336Z,16.83
2022-12-06T14:28:56.575Z,16.25
2022-12-06T14:33:59.082Z,14.43
2022-12-06T14:39:02.814Z,15.38
2022-12-06T14:44:12.336Z,16.65
2022-12-06T14:49:38.440Z,12.65
2022-12-06T14:54:43.984Z,15.43
2022-12-06T15:00:14.370Z,14.52
2022-12-06T15:05:34.984Z,14.93
2022-12-06T15:10:35.814Z,13.10
2022-12-06T15:15:39.862Z,15.38
2022-12-06T15:20:42.096Z,12.50
2022-12-06T15:25:42.888Z,13.10
2022-12-06T15:30:43.826Z,14.13
2022-12-06T15:35:46.188Z,9.80
2022-12-06T15:40:50.696Z,9.98
2022-12-06T15:45:51.561Z,9.80
2022-12-06T15:50:55.169Z,10.52
2022-12-06T15:55:56.045Z,11.05
2022-12-06T16:00:58.929Z,10.05
2022-12-06T16:06:01.090Z,9.55
2022-12-06T16:11:17.125Z,12.07
2022-12-06T16:16:20.202Z,11.30
2022-12-06T16:21:25.820Z,14.30
2022-12-06T16:26:26.611Z,10.60
2022-12-06T16:31:27.944Z,11.77
2022-12-06T16:36:32.052Z,11.35
2022-12-06T16:41:35.066Z,17.30
2022-12-06T16:46:37.337Z,10.15
2022-12-06T16:51:39.479Z,11.32
2022-12-06T16:56:41.817Z,9.20
2022-12-06T17:01:49.415Z,10.75
2022-12-06T17:06:51.685Z,8.80
2022-12-06T17:12:06.629Z,10.90
2022-12-06T17:17:07.842Z,11.38
2022-12-06T17:22:12.794Z,8.43
2022-12-06T17:27:14.884Z,7.57
2022-12-06T17:32:16.043Z,7.10
2022-12-06T17:37:18.258Z,15.52
2022-12-06T17:42:36.806Z,6.55
2022-12-06T17:47:37.596Z,5.90
2022-12-06T17:52:39.798Z,10.52
2022-12-06T17:57:40.658Z,4.97
2022-12-06T18:02:41.669Z,3.38
2022-12-06T18:07:44.025Z,5.18
2022-12-06T18:12:44.979Z,5.55
2022-12-06T18:17:45.793Z,6.43
2022-12-06T18:22:48.526Z,4.40
2022-12-06T18:27:49.779Z,4.80
2022-12-06T18:32:50.658Z,4.97
2022-12-06T18:37:52.954Z,4.68
2022-12-06T18:42:53.963Z,3.78
2022-12-06T18:47:55.001Z,4.60
2022-12-06T18:52:57.127Z,4.20
2022-12-06T18:57:58.491Z,3.97
2022-12-06T19:03:00.607Z,4.93
2022-12-06T19:08:03.383Z,5.43
2022-12-06T19:13:06.100Z,3.83
2022-12-06T19:18:07.085Z,6.50
2022-12-06T19:23:09.264Z,5.15
2022-12-06T19:28:10.201Z,6.40
2022-12-06T19:33:11.167Z,4.28
2022-12-06T19:38:13.367Z,5.80
2022-12-06T19:43:32.000Z,3.13
2022-12-06T19:48:32.883Z,4.82
2022-12-06T19:53:37.581Z,3.60
2022-12-06T19:58:38.903Z,4.10
2022-12-06T20:03:39.957Z,4.57
2022-12-06T20:08:42.569Z,4.95
2022-12-06T20:13:43.491Z,3.97
2022-12-06T20:18:44.350Z,5.78
2022-12-06T20:23:46.650Z,3.13
2022-12-06T20:28:49.009Z,3.85
2022-12-06T20:33:50.553Z,3.35
2022-12-06T20:38:53.831Z,4.97
2022-12-06T20:43:54.695Z,4.22
2022-12-06T20:48:56.498Z,3.33
2022-12-06T20:54:00.101Z,4.18
2022-12-06T20:59:02.962Z,3.25
2022-12-06T21:04:04.265Z,3.97
2022-12-06T21:09:06.844Z,9.80
2022-12-06T21:14:07.622Z,3.70
2022-12-06T21:19:11.808Z,4.85
2022-12-06T21:24:15.856Z,4.43
2022-12-06T21:29:17.851Z,4.05
2022-12-06T21:34:19.363Z,5.03
2022-12-06T21:39:21.511Z,6.90
2022-12-06T21:44:22.453Z,5.07
2022-12-06T21:49:23.390Z,4.78
2022-12-06T21:54:25.567Z,4.43
2022-12-06T21:59:26.930Z,5.78
2022-12-06T22:04:27.721Z,4.30
2022-12-06T22:09:29.931Z,5.13
2022-12-06T22:14:30.999Z,7.47
2022-12-06T22:19:31.920Z,8.55
2022-12-06T22:24:34.354Z,7.55
2022-12-06T22:29:35.163Z,12.40
2022-12-06T22:34:35.957Z,9.10
2022-12-06T22:39:38.123Z,12.70
2022-12-06T22:44:38.897Z,15.73
2022-12-06T22:49:39.670Z,14.18
2022-12-06T22:54:41.867Z,18.67
2022-12-06T22:59:42.664Z,18.15
2022-12-06T23:04:43.467Z,23.27
2022-12-06T23:09:45.758Z,24.40
2022-12-06T23:14:46.746Z,26.10
2022-12-06T23:19:47.657Z,27.35
2022-12-06T23:24:51.575Z,28.40
2022-12-06T23:29:52.420Z,26.23
2022-12-06T23:34:53.225Z,22.88
2022-12-06T23:39:55.439Z,28.17
2022-12-06T23:44:56.203Z,20.25
2022-12-06T23:49:56.969Z,22.27
2022-12-06T23:54:59.742Z,19.05
